Time;durP1;ratioP1;P1;durP2;ratioP2;P2;SDS_P1;SDS_P2;PMS_P1;PMS_P2;Temp;Humidity;BMP_temperature;BMP_pressure;BME280_temperature;BME280_humidity;BME280_pressure;Samples;Min_cycle;Max_cycle;Signal;HPM_P1;HPM_P2
2021/08/01 00:01:49;;;;;;;;;;;;;;;23.19;58.73;100488.38;5121304;27;936;-63
2021/08/01 00:04:15;;;;;;;;;;;;;;;23.11;58.78;100488.16;5088762;28;1341;-62
2021/08/01 00:06:42;;;;;;;;;;;;;;;22.97;59.31;100483.09;5089226;28;1099;-63
2021/08/01 00:09:09;;;;;;;;;;;;;;;23.00;59.04;100479.34;5089056;28;1186;-62
2021/08/01 00:11:36;;;;;;;;;;;;;;;23.11;58.98;100485.50;5087996;28;1279;-62
2021/08/01 00:14:03;;;;;;;;;;;;;;;23.10;59.02;100490.94;5089027;28;1275;-63
2021/08/01 00:16:30;;;;;;;;;;;;;;;23.09;58.97;100492.75;5089284;28;1962;-63
2021/08/01 00:18:57;;;;;;;;;;;;;;;23.02;59.33;100499.50;5088927;28;1248;-63
2021/08/01 00:21:24;;;;;;;;;;;;;;;23.31;58.53;100497.22;5070596;28;1199;-63
2021/08/01 00:23:51;;;;;;;;;;;;;;;23.19;58.96;100501.66;5088950;28;1305;-62
2021/08/01 00:26:17;;;;;;;;;;;;;;;23.21;59.03;100513.03;5089135;28;1286;-63
2021/08/01 00:28:44;;;;;;;;;;;;;;;23.32;58.98;100502.41;5088783;28;1224;-63
2021/08/01 00:31:11;;;;;;;;;;;;;;;23.27;59.04;100509.91;5089186;28;1255;-64
2021/08/01 00:33:38;;;;;;;;;;;;;;;23.21;59.41;100514.84;5087775;28;1402;-63
2021/08/01 00:36:04;;;;;;;;;;;;;;;23.20;59.50;100523.78;5089106;28;1906;-64
2021/08/01 00:38:31;;;;;;;;;;;;;;;23.19;59.68;100530.91;5089064;28;1371;-64
2021/08/01 00:40:58;;;;;;;;;;;;;;;23.23;59.16;100528.84;5089069;28;1307;-64
2021/08/01 00:43:25;;;;;;;;;;;;;;;23.32;58.38;100534.28;5088791;28;1479;-64
2021/08/01 00:45:52;;;;;;;;;;;;;;;23.31;57.58;100532.63;5089203;28;1228;-64
2021/08/01 00:48:23;;;;;;;;;;;;;;;23.36;57.29;100524.25;5087484;28;1043;-64
2021/08/01 00:50:50;;;;;;;;;;;;;;;23.29;56.86;100517.75;5087425;28;1330;-63
2021/08/01 00:53:17;;;;;;;;;;;;;;;23.20;56.78;100524.63;5087299;28;1575;-64
2021/08/01 00:55:44;;;;;;;;;;;;;;;23.09;57.00;100526.44;5089088;28;1910;-61
2021/08/01 00:58:11;;;;;;;;;;;;;;;23.13;56.26;100528.72;5088330;28;821;-63
2021/08/01 01:03:46;;;;;;;;;;;;;;;23.09;56.60;100529.94;5090485;28;932;-62
2021/08/01 01:06:21;;;;;;;;;;;;;;;23.10;56.29;100526.31;5121934;27;1386;-63
2021/08/01 01:08:52;;;;;;;;;;;;;;;23.08;56.33;100520.28;5087420;28;1244;-63
2021/08/01 01:11:19;;;;;;;;;;;;;;;23.24;56.15;100525.25;5089029;28;992;-63
2021/08/01 01:13:49;;;;;;;;;;;;;;;23.15;56.22;100525.97;5089103;28;1321;-64
2021/08/01 01:16:16;;;;;;;;;;;;;;;23.11;56.28;100513.88;5088828;28;1917;-63
2021/08/01 01:18:46;;;;;;;;;;;;;;;23.07;56.63;100518.59;5088382;28;1240;-64
2021/08/01 01:21:20;;;;;;;;;;;;;;;23.03;57.15;100513.66;5092802;28;1274;-64
2021/08/01 01:23:50;;;;;;;;;;;;;;;23.05;57.42;100519.66;5092782;28;1313;-64
2021/08/01 01:26:19;;;;;;;;;;;;;;;23.04;57.42;100520.66;5092943;28;1278;-63
2021/08/01 01:29:05;;;;;;;;;;;;;;;23.12;57.34;100521.75;5092515;28;1296;-63
2021/08/01 01:31:31;;;;;;;;;;;;;;;23.13;57.47;100520.75;5091046;28;1066;-64
2021/08/01 01:34:04;;;;;;;;;;;;;;;23.08;57.25;100516.78;5092135;28;1236;-64
2021/08/01 01:36:32;;;;;;;;;;;;;;;23.07;57.30;100518.59;5124864;27;2032;-64
2021/08/01 01:39:01;;;;;;;;;;;;;;;23.06;57.40;100522.22;5092273;28;1222;-63
2021/08/01 01:41:28;;;;;;;;;;;;;;;23.08;57.46;100525.59;5092241;28;864;-63
2021/08/01 01:43:55;;;;;;;;;;;;;;;22.86;58.21;100531.72;5090363;28;1550;-63
2021/08/01 01:46:23;;;;;;;;;;;;;;;23.02;57.70;100525.22;5090899;28;1147;-63
2021/08/01 01:48:51;;;;;;;;;;;;;;;22.93;57.69;100525.94;5091972;28;1324;-65
2021/08/01 01:51:18;;;;;;;;;;;;;;;23.01;57.80;100524.38;5124562;27;1475;-66
2021/08/01 01:53:45;;;;;;;;;;;;;;;23.02;58.08;100519.91;5090434;28;1317;-63
2021/08/01 01:56:13;;;;;;;;;;;;;;;22.93;58.16;100526.78;5123671;27;1905;-63
2021/08/01 01:58:40;;;;;;;;;;;;;;;22.91;58.03;100528.75;5089744;28;1226;-63
2021/08/01 02:01:07;;;;;;;;;;;;;;;22.76;57.99;100536.09;5092301;28;1058;-63
2021/08/01 02:03:33;;;;;;;;;;;;;;;22.67;58.15;100547.41;5092022;28;702;-63
2021/08/01 02:06:00;;;;;;;;;;;;;;;22.90;57.11;100542.13;5092267;28;1321;-63
2021/08/01 02:08:33;;;;;;;;;;;;;;;22.87;56.75;100543.22;5091929;28;1082;-63
2021/08/01 02:11:00;;;;;;;;;;;;;;;22.88;56.64;100539.59;5092040;28;1342;-64
2021/08/01 02:13:29;;;;;;;;;;;;;;;22.89;56.55;100537.78;5091698;28;730;-64
2021/08/01 02:15:57;;;;;;;;;;;;;;;22.93;56.19;100537.41;5091908;28;1902;-63
2021/08/01 02:18:44;;;;;;;;;;;;;;;23.08;55.67;100530.06;5090096;28;850;-64
2021/08/01 02:21:11;;;;;;;;;;;;;;;22.96;56.01;100531.88;5091115;27;1307;-63
2021/08/01 02:23:43;;;;;;;;;;;;;;;22.92;56.05;100529.59;5124075;27;730;-64
2021/08/01 02:26:11;;;;;;;;;;;;;;;22.93;55.95;100532.09;5091690;28;1263;-62
2021/08/01 02:28:39;;;;;;;;;;;;;;;22.87;55.97;100529.94;5091384;28;842;-64
2021/08/01 02:31:06;;;;;;;;;;;;;;;22.74;55.93;100523.88;5088702;28;1003;-63
2021/08/01 02:33:34;;;;;;;;;;;;;;;22.77;55.93;100518.31;5089795;28;1270;-63
2021/08/01 02:36:03;;;;;;;;;;;;;;;22.67;55.62;100518.22;5091291;28;1972;-63
2021/08/01 02:38:30;;;;;;;;;;;;;;;22.69;55.70;100526.03;5091096;28;1039;-63
2021/08/01 02:40:58;;;;;;;;;;;;;;;22.69;55.29;100528.69;5091468;28;1219;-63
2021/08/01 02:43:27;;;;;;;;;;;;;;;22.59;55.69;100525.84;5091177;28;1221;-64
2021/08/01 02:45:54;;;;;;;;;;;;;;;22.72;55.42;100524.00;5090872;28;1308;-63
2021/08/01 02:48:21;;;;;;;;;;;;;;;22.80;55.33;100520.72;5091206;28;872;-64
2021/08/01 02:50:55;;;;;;;;;;;;;;;22.72;55.17;100525.81;5091272;28;1310;-63
2021/08/01 02:53:22;;;;;;;;;;;;;;;22.73;55.38;100525.69;5091056;28;742;-63
2021/08/01 02:55:51;;;;;;;;;;;;;;;22.66;55.57;100523.63;5089610;28;1910;-63
2021/08/01 02:58:18;;;;;;;;;;;;;;;22.55;55.90;100521.75;5091074;28;939;-63
2021/08/01 03:00:47;;;;;;;;;;;;;;;22.53;55.70;100522.81;5091124;28;1303;-63
2021/08/01 03:03:15;;;;;;;;;;;;;;;22.67;55.50;100520.84;5090796;28;1249;-64
2021/08/01 03:05:43;;;;;;;;;;;;;;;22.63;55.82;100526.47;5090668;28;1646;-63
2021/08/01 03:08:13;;;;;;;;;;;;;;;22.61;55.82;100531.06;5090523;28;1126;-65
2021/08/01 03:10:43;;;;;;;;;;;;;;;22.37;56.63;100528.47;5090639;28;1290;-63
2021/08/01 03:13:10;;;;;;;;;;;;;;;22.50;56.59;100525.69;5090391;28;1010;-63
2021/08/01 03:15:37;;;;;;;;;;;;;;;22.39;56.68;100521.22;5090540;28;1909;-63
2021/08/01 03:18:04;;;;;;;;;;;;;;;22.50;56.31;100521.25;5088518;28;1187;-63
2021/08/01 03:20:31;;;;;;;;;;;;;;;22.50;56.38;100528.34;5090162;28;1280;-64
2021/08/01 03:22:58;;;;;;;;;;;;;;;22.48;56.29;100525.00;5088105;28;1039;-64
2021/08/01 03:25:24;;;;;;;;;;;;;;;22.54;56.37;100519.22;5089918;28;1338;-63
2021/08/01 03:27:51;;;;;;;;;;;;;;;22.45;56.40;100527.88;5090215;28;1024;-64
2021/08/01 03:30:18;;;;;;;;;;;;;;;22.46;55.82;100532.22;5088195;28;1318;-64
2021/08/01 03:32:44;;;;;;;;;;;;;;;22.49;55.71;100537.31;5090023;28;1169;-64
2021/08/01 03:35:11;;;;;;;;;;;;;;;22.40;55.95;100530.03;5089916;28;1902;-63
2021/08/01 03:37:38;;;;;;;;;;;;;;;22.37;55.90;100538.22;5089969;28;814;-64
2021/08/01 03:40:05;;;;;;;;;;;;;;;22.41;55.84;100532.56;5088299;28;1176;-63
2021/08/01 03:42:32;;;;;;;;;;;;;;;22.33;56.40;100534.97;5121347;27;1072;-63
2021/08/01 03:44:59;;;;;;;;;;;;;;;22.39;56.27;100541.59;5089492;28;1271;-64
2021/08/01 03:47:25;;;;;;;;;;;;;;;22.31;56.48;100537.72;5089562;28;1295;-64
2021/08/01 03:49:52;;;;;;;;;;;;;;;22.44;56.42;100539.44;5089327;28;1314;-63
2021/08/01 03:52:19;;;;;;;;;;;;;;;22.44;56.21;100550.06;5089380;28;1090;-64
2021/08/01 03:54:45;;;;;;;;;;;;;;;22.42;56.18;100552.00;5087905;28;1282;-63
2021/08/01 03:57:13;;;;;;;;;;;;;;;22.26;56.57;100555.78;5089025;28;1963;-63
2021/08/01 03:59:39;;;;;;;;;;;;;;;22.27;56.64;100560.16;5089058;28;1212;-64
2021/08/01 04:02:06;;;;;;;;;;;;;;;22.25;56.55;100558.56;5121421;27;793;-63
2021/08/01 04:04:33;;;;;;;;;;;;;;;22.18;56.70;100558.19;5088996;28;1299;-64
2021/08/01 04:07:00;;;;;;;;;;;;;;;22.31;56.09;100569.56;5088988;28;750;-64
2021/08/01 04:09:26;;;;;;;;;;;;;;;22.29;56.41;100568.84;5086780;28;1262;-63
2021/08/01 04:11:53;;;;;;;;;;;;;;;22.23;56.40;100569.28;5089399;28;1087;-64
2021/08/01 04:14:20;;;;;;;;;;;;;;;22.41;56.11;100577.69;5089108;28;1222;-63
2021/08/01 04:16:46;;;;;;;;;;;;;;;22.17;55.96;100583.00;5089201;28;1914;-64
2021/08/01 04:19:13;;;;;;;;;;;;;;;22.29;55.63;100582.09;5088848;28;1216;-63
2021/08/01 04:21:40;;;;;;;;;;;;;;;22.25;55.71;100583.28;5088974;28;1067;-63
2021/08/01 04:24:07;;;;;;;;;;;;;;;22.16;55.45;100591.09;5088952;28;1307;-63
2021/08/01 04:26:34;;;;;;;;;;;;;;;22.22;55.22;100590.66;5089365;28;901;-63
2021/08/01 04:29:01;;;;;;;;;;;;;;;22.05;55.57;100597.16;5088273;28;1295;-63
2021/08/01 04:31:27;;;;;;;;;;;;;;;22.13;55.10;100593.97;5121153;27;797;-63
2021/08/01 04:33:54;;;;;;;;;;;;;;;22.18;54.48;100590.00;5088479;28;1303;-63
2021/08/01 04:36:21;;;;;;;;;;;;;;;22.11;54.75;100583.47;5088555;28;2002;-63
2021/08/01 04:38:47;;;;;;;;;;;;;;;22.08;54.36;100590.78;5086385;28;1529;-63
2021/08/01 04:41:14;;;;;;;;;;;;;;;21.98;54.82;100590.59;5088650;28;1021;-63
2021/08/01 04:43:41;;;;;;;;;;;;;;;22.16;54.17;100589.25;5088228;28;1544;-62
2021/08/01 04:46:09;;;;;;;;;;;;;;;22.03;54.29;100588.50;5088575;28;1205;-63
2021/08/01 04:48:35;;;;;;;;;;;;;;;22.15;54.11;100598.19;5086854;28;1301;-64
2021/08/01 04:51:02;;;;;;;;;;;;;;;22.09;53.59;100590.69;5088058;28;1405;-63
2021/08/01 04:53:29;;;;;;;;;;;;;;;22.08;53.65;100594.28;5086038;28;1673;-64
2021/08/01 04:55:56;;;;;;;;;;;;;;;22.02;53.36;100594.75;5087667;28;1983;-63
2021/08/01 04:58:22;;;;;;;;;;;;;;;22.02;53.40;100592.09;5088342;28;825;-64
2021/08/01 05:00:49;;;;;;;;;;;;;;;22.09;52.86;100588.03;5088583;28;1310;-63
2021/08/01 05:03:16;;;;;;;;;;;;;;;21.98;52.99;100587.97;5088158;28;703;-63
2021/08/01 05:05:43;;;;;;;;;;;;;;;21.94;52.95;100589.16;5087657;28;1584;-63
2021/08/01 05:08:09;;;;;;;;;;;;;;;21.97;52.54;100591.59;5087807;28;1435;-63
2021/08/01 05:10:36;;;;;;;;;;;;;;;21.80;52.76;100595.41;5088353;28;1275;-63
2021/08/01 05:13:06;;;;;;;;;;;;;;;22.00;52.45;100594.03;5069640;28;1172;-63
2021/08/01 05:15:34;;;;;;;;;;;;;;;21.76;52.55;100606.38;5069460;28;1440;-63
2021/08/01 05:18:03;;;;;;;;;;;;;;;21.96;51.57;100592.53;5088278;28;1910;-64
2021/08/01 05:20:30;;;;;;;;;;;;;;;21.82;51.76;100594.47;5103535;28;1321;-63
2021/08/01 05:22:57;;;;;;;;;;;;;;;21.68;52.47;100606.03;5087863;28;1150;-64
2021/08/01 05:25:24;;;;;;;;;;;;;;;21.78;51.58;100596.50;5103674;28;1234;-63
2021/08/01 05:27:50;;;;;;;;;;;;;;;21.68;51.86;100598.09;5087896;28;786;-64
2021/08/01 05:30:17;;;;;;;;;;;;;;;21.69;52.01;100605.09;5088560;28;1326;-63
2021/08/01 05:32:43;;;;;;;;;;;;;;;21.65;51.94;100609.75;5087900;28;864;-64
2021/08/01 05:35:10;;;;;;;;;;;;;;;21.74;51.65;100614.41;5088335;28;1322;-64
2021/08/01 05:37:37;;;;;;;;;;;;;;;21.85;51.25;100612.81;5087703;28;1910;-64
2021/08/01 05:40:04;;;;;;;;;;;;;;;21.85;51.27;100613.66;5087842;28;1215;-64
2021/08/01 05:42:32;;;;;;;;;;;;;;;21.84;51.51;100613.75;5069219;28;1309;-63
2021/08/01 05:44:59;;;;;;;;;;;;;;;21.61;52.21;100612.75;5087897;28;1302;-64
2021/08/01 05:47:26;;;;;;;;;;;;;;;21.74;51.72;100621.50;5102564;28;1203;-64
2021/08/01 05:49:53;;;;;;;;;;;;;;;21.71;52.01;100619.06;5087678;28;1326;-63
2021/08/01 05:52:19;;;;;;;;;;;;;;;21.70;51.80;100614.75;5087052;28;1126;-64
2021/08/01 05:54:46;;;;;;;;;;;;;;;21.70;52.00;100617.41;5103192;28;1271;-63
2021/08/01 05:57:13;;;;;;;;;;;;;;;21.83;52.00;100609.41;5087457;28;1967;-64
2021/08/01 05:59:39;;;;;;;;;;;;;;;21.83;51.68;100623.50;5087769;28;1228;-66
2021/08/01 06:02:06;;;;;;;;;;;;;;;21.97;51.72;100631.38;5085512;28;1435;-65
2021/08/01 06:04:33;;;;;;;;;;;;;;;22.25;51.00;100628.38;5086723;28;1351;-64
2021/08/01 06:07:00;;;;;;;;;;;;;;;22.47;51.13;100634.75;5089880;28;798;-64
2021/08/01 06:09:26;;;;;;;;;;;;;;;22.59;51.35;100637.34;5090557;28;1259;-66
2021/08/01 06:11:53;;;;;;;;;;;;;;;22.70;51.30;100644.56;5090524;28;900;-64
2021/08/01 06:14:20;;;;;;;;;;;;;;;22.79;51.24;100655.34;5090301;28;1215;-65
2021/08/01 06:16:47;;;;;;;;;;;;;;;22.88;51.19;100663.56;5090384;28;1989;-66
2021/08/01 06:19:13;;;;;;;;;;;;;;;22.93;51.48;100661.41;5105530;28;1287;-65
2021/08/01 06:21:40;;;;;;;;;;;;;;;22.94;51.61;100661.31;5090463;28;1169;-65
2021/08/01 06:24:07;;;;;;;;;;;;;;;22.98;51.69;100662.75;5090015;28;1229;-66
2021/08/01 06:26:33;;;;;;;;;;;;;;;23.04;51.81;100661.47;5090094;28;1134;-66
2021/08/01 06:29:00;;;;;;;;;;;;;;;23.09;51.66;100670.75;5089778;28;1208;-64
2021/08/01 06:31:27;;;;;;;;;;;;;;;23.11;51.74;100673.28;5071356;28;1310;-66
2021/08/01 06:33:54;;;;;;;;;;;;;;;;;;5089760;28;1228;-65
2021/08/01 06:36:20;;;;;;;;;;;;;;;23.19;51.90;100673.56;5090341;28;1941;-65
2021/08/01 06:38:47;;;;;;;;;;;;;;;23.20;51.94;100678.75;5089895;28;1215;-64
2021/08/01 06:41:14;;;;;;;;;;;;;;;23.24;52.04;100687.34;5090067;28;925;-64
2021/08/01 06:43:40;;;;;;;;;;;;;;;23.28;51.96;100683.50;5089566;28;1636;-66
2021/08/01 06:46:07;;;;;;;;;;;;;;;23.30;51.73;100689.53;5071415;28;1163;-65
2021/08/01 06:48:34;;;;;;;;;;;;;;;23.32;52.08;100691.09;5089580;28;920;-66
2021/08/01 06:51:02;;;;;;;;;;;;;;;23.34;52.23;100697.16;5104651;28;1246;-66
2021/08/01 06:53:29;;;;;;;;;;;;;;;23.39;52.19;100696.81;5089491;28;1095;-65
2021/08/01 06:55:56;;;;;;;;;;;;;;;23.42;52.27;100704.56;5089760;28;1279;-65
2021/08/01 06:58:23;;;;;;;;;;;;;;;23.43;52.19;100700.94;5089681;28;1905;-66
2021/08/01 07:00:50;;;;;;;;;;;;;;;23.47;52.10;100698.91;5089403;28;1356;-65
2021/08/01 07:03:17;;;;;;;;;;;;;;;23.48;52.16;100704.09;5089733;28;774;-67
2021/08/01 07:05:44;;;;;;;;;;;;;;;23.50;52.42;100706.66;5090035;28;1240;-64
2021/08/01 07:08:11;;;;;;;;;;;;;;;23.52;52.16;100710.03;5089584;28;801;-64
2021/08/01 07:10:38;;;;;;;;;;;;;;;23.56;52.52;100714.16;5089730;28;1244;-66
2021/08/01 07:13:05;;;;;;;;;;;;;;;23.57;52.43;100713.16;5089852;28;1127;-65
2021/08/01 07:15:32;;;;;;;;;;;;;;;23.60;52.36;100708.47;5089717;28;1263;-64
2021/08/01 07:17:59;;;;;;;;;;;;;;;23.62;52.25;100716.34;5089262;28;2008;-65
2021/08/01 07:20:27;;;;;;;;;;;;;;;23.64;52.18;100720.56;5090267;28;1558;-64
2021/08/01 07:22:54;;;;;;;;;;;;;;;23.64;52.50;100714.38;5090685;28;993;-64
2021/08/01 07:25:21;;;;;;;;;;;;;;;23.66;52.45;100718.63;5090564;28;1220;-65
2021/08/01 07:27:48;;;;;;;;;;;;;;;23.68;52.56;100718.50;5090641;28;1012;-64
2021/08/01 07:30:14;;;;;;;;;;;;;;;23.70;52.63;100719.22;5089459;28;1566;-64
2021/08/01 07:32:41;;;;;;;;;;;;;;;23.71;52.60;100728.91;5071817;28;1302;-65
2021/08/01 07:35:08;;;;;;;;;;;;;;;23.66;52.79;100723.94;5072067;28;1264;-63
2021/08/01 07:37:35;;;;;;;;;;;;;;;23.74;52.73;100737.47;5089890;28;1975;-63
2021/08/01 07:40:11;;;;;;;;;;;;;;;23.75;52.84;100733.00;5071350;28;1253;-63
2021/08/01 07:42:42;;;;;;;;;;;;;;;23.77;52.65;100734.56;5071941;28;1477;-64
2021/08/01 07:45:21;;;;;;;;;;;;;;;23.78;52.61;100735.44;5089657;28;1351;-66
2021/08/01 07:47:48;;;;;;;;;;;;;;;23.79;52.75;100729.16;5089514;28;869;-66
2021/08/01 07:50:14;;;;;;;;;;;;;;;23.80;52.68;100730.84;5089858;28;1252;-67
2021/08/01 07:52:41;;;;;;;;;;;;;;;23.82;52.66;100734.22;5089734;28;1043;-65
2021/08/01 07:55:09;;;;;;;;;;;;;;;23.82;52.75;100728.91;5089580;28;1248;-65
2021/08/01 07:57:37;;;;;;;;;;;;;;;23.79;52.70;100729.16;5089404;28;1989;-66
2021/08/01 08:00:04;;;;;;;;;;;;;;;23.86;52.84;100735.69;5089274;28;1221;-67
2021/08/01 08:02:31;;;;;;;;;;;;;;;23.87;52.74;100735.56;5071232;28;759;-64
2021/08/01 08:04:58;;;;;;;;;;;;;;;23.87;52.73;100737.38;5088763;28;1228;-64
2021/08/01 08:07:24;;;;;;;;;;;;;;;23.88;52.59;100739.06;5089512;28;1048;-66
2021/08/01 08:09:51;;;;;;;;;;;;;;;23.90;52.78;100737.97;5089025;28;1260;-64
2021/08/01 08:12:18;;;;;;;;;;;;;;;23.90;52.87;100745.09;5089176;28;798;-64
2021/08/01 08:14:45;;;;;;;;;;;;;;;23.92;52.92;100745.84;5070873;28;1598;-63
2021/08/01 08:17:12;;;;;;;;;;;;;;;23.97;52.78;100748.13;5070652;28;1909;-65
2021/08/01 08:19:39;;;;;;;;;;;;;;;24.01;52.78;100754.91;5088954;28;1236;-64
2021/08/01 08:22:09;;;;;;;;;;;;;;;23.99;52.80;100749.69;5069993;28;1452;-64
2021/08/01 08:24:36;;;;;;;;;;;;;;;23.98;52.97;100753.34;5088184;28;1538;-64
2021/08/01 08:27:03;;;;;;;;;;;;;;;23.98;52.83;100748.03;5088075;28;1390;-64
2021/08/01 08:29:30;;;;;;;;;;;;;;;24.00;52.71;100748.75;5088189;28;1319;-63
2021/08/01 08:31:58;;;;;;;;;;;;;;;24.00;52.88;100753.22;5087350;28;1557;-64
2021/08/01 08:34:25;;;;;;;;;;;;;;;24.03;53.08;100751.16;5069822;28;1330;-63
2021/08/01 08:36:53;;;;;;;;;;;;;;;24.04;52.95;100755.53;5088547;28;1977;-63
2021/08/01 08:39:21;;;;;;;;;;;;;;;24.10;52.01;100760.38;5088985;28;1246;-60
2021/08/01 08:41:48;;;;;;;;;;;;;;;23.88;48.59;100755.88;5088594;28;936;-60
2021/08/01 08:44:15;;;;;;;;;;;;;;;23.73;47.78;100754.41;5088861;28;1240;-58
2021/08/01 08:46:42;;;;;;;;;;;;;;;23.67;47.40;100757.56;5088494;28;1103;-63
2021/08/01 08:49:10;;;;;;;;;;;;;;;23.74;48.14;100761.41;5088509;28;1312;-63
2021/08/01 08:51:38;;;;;;;;;;;;;;;23.77;46.96;100763.81;5069627;28;1546;-65
2021/08/01 08:54:15;;;;;;;;;;;;;;;23.64;46.94;100772.88;5087258;28;1419;-63
2021/08/01 08:56:43;;;;;;;;;;;;;;;23.80;46.78;100774.22;5087602;28;1910;-63
2021/08/01 08:59:12;;;;;;;;;;;;;;;23.82;46.79;100779.44;5103390;28;1705;-64
2021/08/01 09:01:38;;;;;;;;;;;;;;;23.74;46.26;100779.19;5088424;28;1418;-63
2021/08/01 09:04:06;;;;;;;;;;;;;;;23.79;46.84;100777.88;5088299;28;1153;-62
2021/08/01 09:06:33;;;;;;;;;;;;;;;23.77;46.74;100782.44;5087740;28;1636;-63
2021/08/01 09:09:00;;;;;;;;;;;;;;;23.79;46.65;100790.31;5088125;28;1232;-59
2021/08/01 09:11:28;;;;;;;;;;;;;;;23.75;46.38;100787.06;5070110;28;1397;-60
2021/08/01 09:13:57;;;;;;;;;;;;;;;23.78;47.28;100783.31;5070030;28;1415;-64
2021/08/01 09:16:42;;;;;;;;;;;;;;;23.78;47.04;100776.16;5070269;28;826;-61
2021/08/01 09:19:22;;;;;;;;;;;;;;;23.78;46.55;100784.16;5088600;28;1247;-64
2021/08/01 09:21:49;;;;;;;;;;;;;;;23.84;46.37;100785.47;5088210;28;902;-62
2021/08/01 09:24:15;;;;;;;;;;;;;;;23.76;46.62;100785.25;5088136;28;1302;-60
2021/08/01 09:26:44;;;;;;;;;;;;;;;23.78;46.73;100791.28;5087433;28;1486;-62
2021/08/01 09:29:14;;;;;;;;;;;;;;;23.69;46.96;100794.66;5088030;28;1227;-61
2021/08/01 09:31:41;;;;;;;;;;;;;;;23.78;46.99;100793.94;5088429;28;958;-62
2021/08/01 09:34:22;;;;;;;;;;;;;;;23.79;47.26;100790.31;5087497;28;1219;-63
2021/08/01 09:37:00;;;;;;;;;;;;;;;23.87;47.26;100791.41;5086524;28;1938;-66
2021/08/01 09:39:37;;;;;;;;;;;;;;;23.92;47.28;100789.22;5069709;28;1276;-61
2021/08/01 09:42:04;;;;;;;;;;;;;;;24.05;47.30;100797.13;5090851;28;715;-62
2021/08/01 09:44:35;;;;;;;;;;;;;;;23.94;47.19;100797.13;5091635;28;1574;-64
2021/08/01 09:47:02;;;;;;;;;;;;;;;23.95;47.16;100799.63;5056992;28;1266;-62
2021/08/01 09:49:30;;;;;;;;;;;;;;;23.94;47.72;100800.63;5106617;27;1390;-63
2021/08/01 09:52:03;;;;;;;;;;;;;;;23.96;47.31;100800.50;5093790;28;1218;-61
2021/08/01 09:54:46;;;;;;;;;;;;;;;23.92;47.09;100805.19;5107082;28;1326;-64
2021/08/01 09:57:18;;;;;;;;;;;;;;;24.01;46.60;100803.66;5090751;28;2230;-62
2021/08/01 09:59:49;;;;;;;;;;;;;;;23.97;46.76;100796.88;5095635;28;1293;-60
2021/08/01 10:02:15;;;;;;;;;;;;;;;23.94;47.21;100802.44;5077293;28;964;-61
2021/08/01 10:04:42;;;;;;;;;;;;;;;23.89;47.11;100797.44;5072393;28;1193;-60
2021/08/01 10:07:13;;;;;;;;;;;;;;;23.93;47.02;100792.75;5091341;28;869;-61
2021/08/01 10:09:41;;;;;;;;;;;;;;;23.93;46.99;100790.94;5091000;28;1279;-60
2021/08/01 10:12:08;;;;;;;;;;;;;;;23.98;46.95;100789.75;5090598;28;1028;-60
2021/08/01 10:14:35;;;;;;;;;;;;;;;24.02;46.60;100789.38;5090868;28;1326;-61
2021/08/01 10:17:02;;;;;;;;;;;;;;;24.02;47.02;100791.19;5090017;28;1910;-61
2021/08/01 10:19:29;;;;;;;;;;;;;;;23.98;46.94;100787.94;5090682;28;1323;-60
2021/08/01 10:21:57;;;;;;;;;;;;;;;24.05;46.81;100794.44;5091101;28;1150;-61
2021/08/01 10:24:25;;;;;;;;;;;;;;;24.07;46.93;100789.03;5091079;28;1228;-61
2021/08/01 10:26:53;;;;;;;;;;;;;;;24.03;47.03;100790.22;5091058;28;841;-61
2021/08/01 10:29:36;;;;;;;;;;;;;;;24.04;47.04;100795.44;5090881;28;1308;-61
2021/08/01 10:32:04;;;;;;;;;;;;;;;24.08;46.73;100794.22;5091038;28;806;-61
2021/08/01 10:34:46;;;;;;;;;;;;;;;24.04;46.39;100791.94;5090865;28;1181;-61
2021/08/01 10:37:26;;;;;;;;;;;;;;;24.10;46.51;100780.81;5089566;28;2017;-61
2021/08/01 10:39:53;;;;;;;;;;;;;;;24.04;46.71;100784.78;5090580;28;1228;-61
2021/08/01 10:42:23;;;;;;;;;;;;;;;24.15;46.55;100784.81;5090488;28;1481;-62
2021/08/01 10:44:50;;;;;;;;;;;;;;;24.16;46.09;100770.56;5090139;28;1276;-61
2021/08/01 10:47:17;;;;;;;;;;;;;;;24.17;46.89;100768.72;5090581;28;1063;-61
2021/08/01 10:49:45;;;;;;;;;;;;;;;24.11;46.42;100772.72;5072167;28;2152;-61
2021/08/01 10:52:13;;;;;;;;;;;;;;;24.13;47.04;100775.28;5089118;28;857;-61
2021/08/01 10:54:56;;;;;;;;;;;;;;;24.18;46.82;100763.28;5071800;28;1256;-61
2021/08/01 10:57:23;;;;;;;;;;;;;;;24.20;47.53;100763.16;5090027;28;1980;-61
2021/08/01 10:59:50;;;;;;;;;;;;;;;24.20;47.40;100758.69;5089980;28;1272;-62
2021/08/01 11:02:19;;;;;;;;;;;;;;;24.24;47.70;100757.47;5090058;28;792;-61
2021/08/01 11:04:46;;;;;;;;;;;;;;;24.20;47.75;100761.34;5090061;28;1330;-62
2021/08/01 11:07:25;;;;;;;;;;;;;;;24.23;47.86;100754.91;5090022;28;1126;-62
2021/08/01 11:10:07;;;;;;;;;;;;;;;24.20;47.55;100753.34;5090220;28;1240;-61
2021/08/01 11:12:35;;;;;;;;;;;;;;;24.22;47.73;100754.09;5089609;28;812;-62
2021/08/01 11:15:06;;;;;;;;;;;;;;;24.24;47.39;100746.81;5088801;28;1573;-62
2021/08/01 11:17:51;;;;;;;;;;;;;;;24.29;47.67;100738.47;5089561;28;1939;-61
2021/08/01 11:20:23;;;;;;;;;;;;;;;24.33;47.86;100740.75;5089108;28;1361;-62
2021/08/01 11:22:51;;;;;;;;;;;;;;;24.37;47.99;100741.38;5071843;28;692;-62
2021/08/01 11:25:32;;;;;;;;;;;;;;;24.36;48.21;100751.16;5089647;28;1204;-61
2021/08/01 11:28:11;;;;;;;;;;;;;;;24.34;48.36;100747.78;5089841;28;786;-61
2021/08/01 11:33:35;;;;;;;;;;;;;;;24.43;48.30;100746.19;5089984;28;786;-62
2021/08/01 11:36:17;;;;;;;;;;;;;;;24.42;48.36;100748.00;5089801;28;1335;-62
2021/08/01 11:38:54;;;;;;;;;;;;;;;24.41;48.37;100745.47;5090066;28;1914;-62
2021/08/01 11:41:38;;;;;;;;;;;;;;;24.41;48.45;100746.31;5089800;28;1039;-62
2021/08/01 11:44:18;;;;;;;;;;;;;;;24.41;48.60;100748.97;5089658;28;1252;-61
2021/08/01 11:46:45;;;;;;;;;;;;;;;24.43;48.68;100752.38;5089813;28;1152;-61
2021/08/01 11:49:12;;;;;;;;;;;;;;;24.40;48.55;100744.63;5089191;28;1272;-60
2021/08/01 11:51:42;;;;;;;;;;;;;;;24.47;48.65;100747.63;5089947;28;1016;-61
2021/08/01 11:54:12;;;;;;;;;;;;;;;24.49;48.76;100756.34;5089445;28;1228;-61
2021/08/01 11:56:42;;;;;;;;;;;;;;;24.44;48.70;100754.03;5089282;28;980;-62
2021/08/01 11:59:12;;;;;;;;;;;;;;;24.44;48.84;100754.03;5070371;28;1976;-61
2021/08/01 12:01:39;;;;;;;;;;;;;;;24.43;48.76;100749.72;5088589;28;825;-61
2021/08/01 12:04:09;;;;;;;;;;;;;;;24.42;48.55;100745.34;5088414;28;1267;-61
2021/08/01 12:06:45;;;;;;;;;;;;;;;24.40;48.69;100752.63;5088263;28;1082;-61
2021/08/01 12:09:23;;;;;;;;;;;;;;;24.46;48.64;100744.13;5104001;28;1582;-61
2021/08/01 12:11:53;;;;;;;;;;;;;;;24.49;48.28;100740.38;5088618;28;1076;-61
2021/08/01 12:14:50;;;;;;;;;;;;;;;24.49;48.61;100740.38;5088519;28;1226;-61
2021/08/01 12:17:16;;;;;;;;;;;;;;;24.47;48.71;100739.63;5075548;28;1005;-61
2021/08/01 12:19:46;;;;;;;;;;;;;;;24.52;48.58;100755.25;5088529;28;1981;-61
2021/08/01 12:22:15;;;;;;;;;;;;;;;24.56;48.57;100751.38;5087707;28;809;-62
2021/08/01 12:24:44;;;;;;;;;;;;;;;24.57;48.64;100745.91;5088070;28;1188;-61
2021/08/01 12:27:24;;;;;;;;;;;;;;;24.59;48.71;100745.81;5086877;28;1639;-59
2021/08/01 12:29:55;;;;;;;;;;;;;;;24.59;48.33;100736.00;5102989;28;1719;-58
2021/08/01 12:32:32;;;;;;;;;;;;;;;24.61;48.79;100762.50;5088395;28;832;-59
2021/08/01 12:35:07;;;;;;;;;;;;;;;24.61;48.80;100751.84;5088108;28;1631;-59
2021/08/01 12:37:48;;;;;;;;;;;;;;;24.72;49.65;100757.13;5088735;28;1254;-58
2021/08/01 12:40:29;;;;;;;;;;;;;;;24.70;49.64;100748.44;5088164;28;1506;-60
2021/08/01 12:42:58;;;;;;;;;;;;;;;24.72;49.37;100757.13;5086971;28;1076;-62
2021/08/01 12:45:34;;;;;;;;;;;;;;;24.71;49.67;100772.28;5088492;28;1224;-61
2021/08/01 12:48:03;;;;;;;;;;;;;;;24.69;49.41;100760.91;5087587;28;1529;-60
2021/08/01 12:50:30;;;;;;;;;;;;;;;24.72;49.54;100759.78;5088283;28;1224;-60
2021/08/01 12:52:57;;;;;;;;;;;;;;;24.72;49.48;100750.00;5087606;28;1494;-60
2021/08/01 12:55:24;;;;;;;;;;;;;;;24.74;49.59;100761.38;5069393;28;1519;-62
2021/08/01 12:58:01;;;;;;;;;;;;;;;24.84;49.42;100770.34;5087788;28;1913;-63
2021/08/01 13:00:30;;;;;;;;;;;;;;;24.90;49.44;100766.31;5087503;28;1554;-65
2021/08/01 13:02:59;;;;;;;;;;;;;;;24.89;49.23;100757.50;5069859;28;1525;-65